LGRP Airport Information

Runway Information
Runway 07 Length 10846 ft width 148 ft
Elevation 16 ft Threshold 0 ft Heading 70
Runway 25 Length 10846 ft Width 148 ft
Elevation 17 ft Threshold 0 ft Heading 250
Airport Frequencies
Type A/G Name RDO Frequency 563.7 MHZ
Type APP Name RODOS APP Frequency 118.25 MHZ
Type ATIS Name ATIS Frequency 126.35 MHZ
Type GND Name GND Frequency 121.7 MHZ
Type TWR Name TWR Frequency 118.2 MHZ
Airport Navaids
Type VOR-DME Name Paradisi Frequency 108600 KHZ
Type VOR-DME Name Rodos Frequency 115800 KHZ
Type TACAN Name Rodos Frequency 117400 KHZ
Type NDB Name Rodos Frequency 339 KHZ
Airport Weather Information & NOTAM
ADDS - METARS form results

(0653 UTC 17 October 2021)
Data provider http://aviationweather.gov/metar/data/
 
METAR text: LGRP 170650Z 29007KT 9999 FEW010 SCT018 21/14 Q1015 NOSIG
Conditions at: LGRP (RHODES/DIAGORAS , GR) observed 0650 UTC 17 October 2021
Temperature: 21.0°C (70°F)
Dewpoint: 14.0°C (57°F) [RH = 64%]
Pressure (altimeter): 29.97 inches Hg (1015.0 mb)
Winds: from the WNW (290 degrees) at 8 MPH (7 knots; 3.6 m/s)
Visibility: 6 or more miles (10+ km)
Ceiling: at least 12,000 feet AGL
Clouds: few clouds at 1000 feet AGL
scattered clouds at 1800 feet AGL
Weather: no significant weather observed at this time

METAR text: LGRP 170620Z 30004KT 9999 FEW010 21/15 Q1015 NOSIG
Conditions at: LGRP (RHODES/DIAGORAS , GR) observed 0620 UTC 17 October 2021
Temperature: 21.0°C (70°F)
Dewpoint: 15.0°C (59°F) [RH = 69%]
Pressure (altimeter): 29.97 inches Hg (1015.0 mb)
Winds: from the WNW (300 degrees) at 5 MPH (4 knots; 2.1 m/s)
Visibility: 6 or more miles (10+ km)
Ceiling: at least 12,000 feet AGL
Clouds: few clouds at 1000 feet AGL
Weather: no significant weather observed at this time

Forecast for: LGRP (RHODES/DIAGORAS , GR)
Text: TAF LGRP 170500Z 1706/1806 31010KT 9999 FEW010 SCT018
Forecast period: 0600 UTC 17 October 2021 to 0600 UTC 18 October 2021
Forecast type: FROM: standard forecast or significant change
Winds: from the NW (310 degrees) at 12 MPH (10 knots; 5.1 m/s)
Visibility: 6 or more miles (10+ km)
Ceiling: at least 12,000 feet AGL
Clouds: few clouds at 1000 feet AGL
scattered clouds at 1800 feet AGL
Weather: no significant weather forecast for this period
Text: TEMPO 1715/1721 28013G23KT
Forecast period: 1500 to 2100 UTC 17 October 2021
Forecast type: TEMPORARY: The following changes expected for less than half the time period
Winds: from the W (280 degrees) at 15 MPH (13 knots; 6.7 m/s)
gusting to 26 MPH (23 knots; 11.8 m/s)
Visibility: missing
Ceiling: unknown
Clouds: missing
Weather: no significant weather forecast for this period